Weather Data

Pearl Creek Farm: 8878 N Farm Road 75, Walnut Grove MO 65770

<== Previous Day (Wednesday 13 Apr 2016) | Next Day (Friday 15 Apr 2016) ==>

Summary Precipitation Data For Thursday 14 April 2016

ElementValueUnits
Precipitation0"
Notes(none)
SourcePearl Creek Farm

Summary Temperature Data For Thursday 14 April 2016

ElementValueUnits
High Temperature70 oF
Low Temperature42 oF
Average Temperature57 oF
High Humidity79 %
Low Humidity31 %
Average Humidity51 %
SourceSpringfield-Branson National Airport (SGF)

Detail Temperature Data For Thursday 14 April 2016

Date / TimeTemp (F)RH (%)Dew Pt (F)Report Date / TimeSource
2016-04-14 00:52:00 46 68 36.0 2017-12-29 17:00:26.17417 Springfield-Branson National Airport (SGF)
2016-04-14 01:52:00 42 76 35.0 2017-12-29 17:00:26.17417 Springfield-Branson National Airport (SGF)
2016-04-14 02:52:00 44 71 35.0 2017-12-29 17:00:26.17417 Springfield-Branson National Airport (SGF)
2016-04-14 03:52:00 44 71 35.0 2017-12-29 17:00:26.17417 Springfield-Branson National Airport (SGF)
2016-04-14 04:52:00 44 71 35.0 2017-12-29 17:00:26.17417 Springfield-Branson National Airport (SGF)
2016-04-14 05:52:00 42 76 35.0 2017-12-29 17:00:26.17417 Springfield-Branson National Airport (SGF)
2016-04-14 06:52:00 46 79 40.0 2017-12-29 17:00:26.17417 Springfield-Branson National Airport (SGF)
2016-04-14 07:52:00 54 53 37.0 2017-12-29 17:00:26.17417 Springfield-Branson National Airport (SGF)
2016-04-14 08:52:00 59 44 37.0 2017-12-29 17:00:26.17417 Springfield-Branson National Airport (SGF)
2016-04-14 09:52:00 62 38 36.0 2017-12-29 17:00:26.17417 Springfield-Branson National Airport (SGF)
2016-04-14 10:52:00 65 36 37.0 2017-12-29 17:00:26.17417 Springfield-Branson National Airport (SGF)
2016-04-14 11:52:00 67 32 36.0 2017-12-29 17:00:26.17417 Springfield-Branson National Airport (SGF)
2016-04-14 12:52:00 68 32 37.0 2017-12-29 17:00:26.17417 Springfield-Branson National Airport (SGF)
2016-04-14 13:52:00 67 32 36.0 2017-12-29 17:00:26.17417 Springfield-Branson National Airport (SGF)
2016-04-14 14:52:00 70 31 38.0 2017-12-29 17:00:26.17417 Springfield-Branson National Airport (SGF)
2016-04-14 15:52:00 70 32 39.0 2017-12-29 17:00:26.17417 Springfield-Branson National Airport (SGF)
2016-04-14 16:52:00 68 32 37.0 2017-12-29 17:00:26.17417 Springfield-Branson National Airport (SGF)
2016-04-14 17:52:00 66 37 39.0 2017-12-29 17:00:26.17417 Springfield-Branson National Airport (SGF)
2016-04-14 18:52:00 65 33 35.0 2017-12-29 17:00:26.17417 Springfield-Branson National Airport (SGF)
2016-04-14 19:52:00 59 44 37.0 2017-12-29 17:00:26.17417 Springfield-Branson National Airport (SGF)
2016-04-14 20:52:00 56 53 39.0 2017-12-29 17:00:26.17417 Springfield-Branson National Airport (SGF)
2016-04-14 21:52:00 55 59 41.0 2017-12-29 17:00:26.17417 Springfield-Branson National Airport (SGF)
2016-04-14 22:52:00 53 66 42.0 2017-12-29 17:00:26.17417 Springfield-Branson National Airport (SGF)
2016-04-14 23:52:00 52 69 42.0 2017-12-29 17:00:26.17417 Springfield-Branson National Airport (SGF)

A total of 24 rows are displayed.